Time;durP1;ratioP1;P1;durP2;ratioP2;P2;SDS_P1;SDS_P2;PMS_P1;PMS_P2;Temp;Humidity;BMP_temperature;BMP_pressure;BME280_temperature;BME280_humidity;BME280_pressure;Samples;Min_cycle;Max_cycle;Signal;HPM_P1;HPM_P2
2024/02/10 00:01:45;;;;;;;;;;;;;;;16.25;49.09;100013.22;5022299;28;2883;-51
2024/02/10 00:04:13;;;;;;;;;;;;;;;15.99;49.42;100020.06;5017512;28;2007;-54
2024/02/10 00:06:39;;;;;;;;;;;;;;;15.72;50.31;100022.19;5030809;28;1160;-54
2024/02/10 00:09:07;;;;;;;;;;;;;;;15.63;50.58;100021.16;5017879;28;1177;-53
2024/02/10 00:11:33;;;;;;;;;;;;;;;16.55;48.43;100018.66;5029040;28;1174;-54
2024/02/10 00:13:59;;;;;;;;;;;;;;;17.69;45.45;100021.56;5026283;28;1106;-51
2024/02/10 00:16:28;;;;;;;;;;;;;;;16.77;47.63;100015.41;5036661;28;1119;-51
2024/02/10 00:18:57;;;;;;;;;;;;;;;16.24;48.94;100016.25;5027440;28;1027;-53
2024/02/10 00:21:28;;;;;;;;;;;;;;;16.02;49.65;100017.56;5033508;28;1186;-53
2024/02/10 00:23:54;;;;;;;;;;;;;;;15.80;49.97;100014.47;5026520;28;1988;-54
2024/02/10 00:26:21;;;;;;;;;;;;;;;15.64;50.56;100013.72;5030125;28;1012;-49
2024/02/10 00:28:48;;;;;;;;;;;;;;;17.20;46.88;100014.59;5027938;28;1020;-53
2024/02/10 00:31:14;;;;;;;;;;;;;;;17.29;46.25;100018.31;5024514;28;2477;-52
2024/02/10 00:33:39;;;;;;;;;;;;;;;16.45;48.51;100011.38;5028505;28;1102;-52
2024/02/10 00:36:05;;;;;;;;;;;;;;;16.12;49.18;100016.66;5032070;28;1028;-52
2024/02/10 00:38:31;;;;;;;;;;;;;;;15.93;49.74;100010.25;5016885;28;1020;-52
2024/02/10 00:41:03;;;;;;;;;;;;;;;15.75;50.38;100012.56;5029969;28;1116;-50
2024/02/10 00:43:28;;;;;;;;;;;;;;;16.42;48.69;100001.81;5016696;28;1902;-51
2024/02/10 00:45:55;;;;;;;;;;;;;;;17.62;45.62;100002.69;5022482;28;1136;-52
2024/02/10 00:48:20;;;;;;;;;;;;;;;16.65;47.83;100010.34;5027284;28;1141;-53
2024/02/10 00:50:46;;;;;;;;;;;;;;;16.23;49.04;100009.97;5021627;28;1277;-53
2024/02/10 00:53:11;;;;;;;;;;;;;;;15.98;49.47;100011.03;5025256;28;1171;-51
2024/02/10 00:55:37;;;;;;;;;;;;;;;15.82;49.83;100015.00;5016688;28;1013;-51
2024/02/10 00:58:06;;;;;;;;;;;;;;;15.74;50.08;100009.00;5028452;28;1128;-52
2024/02/10 01:00:32;;;;;;;;;;;;;;;17.30;46.43;100006.22;5031642;28;2522;-55
2024/02/10 01:02:57;;;;;;;;;;;;;;;17.19;46.67;100005.53;5024197;28;1135;-55
2024/02/10 01:05:23;;;;;;;;;;;;;;;16.45;48.54;100016.06;5029934;28;1914;-53
2024/02/10 01:07:49;;;;;;;;;;;;;;;16.08;49.45;100013.66;5016373;28;1090;-50
2024/02/10 01:10:15;;;;;;;;;;;;;;;15.89;49.83;100007.25;5017208;28;1159;-52
2024/02/10 01:12:41;;;;;;;;;;;;;;;15.73;50.03;99999.13;5018832;28;1368;-54
2024/02/10 01:15:07;;;;;;;;;;;;;;;15.88;50.13;99998.22;5036161;28;1024;-53
2024/02/10 01:17:32;;;;;;;;;;;;;;;17.38;46.07;99994.56;5029722;28;1064;-52
2024/02/10 01:19:58;;;;;;;;;;;;;;;16.80;47.52;100000.28;5022735;28;1051;-53
2024/02/10 01:22:26;;;;;;;;;;;;;;;16.24;48.74;99991.56;5023658;28;1139;-52
2024/02/10 01:24:54;;;;;;;;;;;;;;;15.96;49.51;99988.53;5030461;28;1906;-50
2024/02/10 01:27:25;;;;;;;;;;;;;;;15.79;50.11;99988.97;5035576;28;1102;-54
2024/02/10 01:29:52;;;;;;;;;;;;;;;15.65;50.43;99990.72;5023646;28;2877;-54
2024/02/10 01:32:20;;;;;;;;;;;;;;;16.96;47.14;99992.66;5029428;28;1104;-53
2024/02/10 01:34:49;;;;;;;;;;;;;;;17.10;46.73;99999.91;5024743;28;1199;-53
2024/02/10 01:37:18;;;;;;;;;;;;;;;16.33;48.57;99989.03;5032288;28;1167;-50
2024/02/10 01:39:46;;;;;;;;;;;;;;;15.98;49.35;99986.34;5024881;28;1187;-52
2024/02/10 01:42:15;;;;;;;;;;;;;;;15.84;49.78;99985.38;5037166;28;1031;-52
2024/02/10 01:44:43;;;;;;;;;;;;;;;15.67;50.44;99981.09;5039947;28;1987;-51
2024/02/10 01:47:10;;;;;;;;;;;;;;;16.90;47.24;99986.44;5026686;28;1091;-52
2024/02/10 01:49:37;;;;;;;;;;;;;;;17.52;45.68;99983.63;5028047;28;1109;-49
2024/02/10 01:52:03;;;;;;;;;;;;;;;16.60;48.08;99994.72;5037344;28;1286;-55
2024/02/10 01:54:29;;;;;;;;;;;;;;;16.16;49.00;99997.69;5038034;28;1111;-54
2024/02/10 01:56:54;;;;;;;;;;;;;;;15.91;49.85;99997.66;5036324;28;1103;-52
2024/02/10 01:59:21;;;;;;;;;;;;;;;15.81;49.84;99996.91;5031277;28;1114;-52
2024/02/10 02:01:48;;;;;;;;;;;;;;;15.63;50.54;99991.00;5020540;28;2599;-55
2024/02/10 02:04:15;;;;;;;;;;;;;;;16.70;48.05;99984.75;5028599;28;1971;-54
2024/02/10 02:06:41;;;;;;;;;;;;;;;17.44;45.88;99987.84;5036915;28;1027;-54
2024/02/10 02:09:07;;;;;;;;;;;;;;;16.51;47.99;99984.69;5027399;28;1096;-51
2024/02/10 02:11:33;;;;;;;;;;;;;;;16.18;49.05;99979.03;5034035;28;1149;-52
2024/02/10 02:14:00;;;;;;;;;;;;;;;15.87;49.92;99984.81;5021868;28;884;-55
2024/02/10 02:16:28;;;;;;;;;;;;;;;15.74;50.07;99981.59;5034812;28;1032;-52
2024/02/10 02:18:57;;;;;;;;;;;;;;;16.66;48.06;99975.47;5039205;28;1122;-53
2024/02/10 02:21:22;;;;;;;;;;;;;;;17.57;45.64;99975.31;5025876;28;1070;-52
2024/02/10 02:23:49;;;;;;;;;;;;;;;16.56;47.89;99979.16;5039530;28;1967;-54
2024/02/10 02:26:15;;;;;;;;;;;;;;;16.23;49.06;99978.97;5023126;28;961;-54
2024/02/10 02:28:42;;;;;;;;;;;;;;;15.85;49.84;99976.88;5038834;28;1024;-50
2024/02/10 02:31:08;;;;;;;;;;;;;;;15.73;49.92;99979.94;5028227;28;2595;-54
2024/02/10 02:33:36;;;;;;;;;;;;;;;15.59;50.40;99981.72;5028531;28;1079;-50
2024/02/10 02:36:01;;;;;;;;;;;;;;;16.92;47.18;99978.72;5038897;28;1118;-50
2024/02/10 02:38:27;;;;;;;;;;;;;;;17.55;45.67;99971.22;5028962;28;1510;-55
2024/02/10 02:40:52;;;;;;;;;;;;;;;16.56;47.98;99982.72;5022385;28;1099;-55
2024/02/10 02:43:18;;;;;;;;;;;;;;;16.16;49.15;99992.19;5019599;28;1250;-51
2024/02/10 02:45:43;;;;;;;;;;;;;;;15.90;49.62;99986.97;5035405;28;1909;-52
2024/02/10 02:48:10;;;;;;;;;;;;;;;15.71;50.13;99992.28;5038956;28;1127;-52
2024/02/10 02:50:37;;;;;;;;;;;;;;;15.55;50.44;99999.84;5037326;28;1255;-52
2024/02/10 02:53:03;;;;;;;;;;;;;;;16.56;48.09;100001.09;5038281;28;1095;-53
2024/02/10 02:55:29;;;;;;;;;;;;;;;17.55;45.46;99996.75;5034100;28;1059;-52
2024/02/10 02:57:55;;;;;;;;;;;;;;;16.56;47.85;99999.19;5019125;28;1083;-51
2024/02/10 03:00:21;;;;;;;;;;;;;;;16.15;49.23;100012.53;5021206;28;1644;-49
2024/02/10 03:02:48;;;;;;;;;;;;;;;15.82;49.68;100020.47;5018730;28;1118;-51
2024/02/10 03:05:13;;;;;;;;;;;;;;;15.71;50.08;100015.06;5035501;28;1910;-52
2024/02/10 03:07:42;;;;;;;;;;;;;;;15.79;50.21;100015.56;5028467;28;1124;-51
2024/02/10 03:10:08;;;;;;;;;;;;;;;17.33;46.38;100013.06;5034845;28;1123;-52
2024/02/10 03:12:34;;;;;;;;;;;;;;;17.08;46.81;100020.53;5029571;28;1119;-54
2024/02/10 03:15:00;;;;;;;;;;;;;;;16.37;48.65;100021.06;5021260;28;1187;-50
2024/02/10 03:17:30;;;;;;;;;;;;;;;16.03;49.37;100015.63;5029383;28;1191;-53
2024/02/10 03:20:00;;;;;;;;;;;;;;;15.82;50.03;100017.75;5025356;28;1147;-51
2024/02/10 03:22:25;;;;;;;;;;;;;;;15.66;50.16;100022.50;5038247;28;1079;-54
2024/02/10 03:24:53;;;;;;;;;;;;;;;16.56;48.34;100021.16;5022337;28;1975;-53
2024/02/10 03:27:22;;;;;;;;;;;;;;;17.55;45.70;100010.50;5026539;28;1046;-49
2024/02/10 03:29:50;;;;;;;;;;;;;;;16.50;48.36;100007.78;5031823;28;1156;-52
2024/02/10 03:32:16;;;;;;;;;;;;;;;16.10;49.30;100015.31;5030279;28;1140;-50
2024/02/10 03:34:41;;;;;;;;;;;;;;;15.91;49.56;100019.56;5024729;28;1107;-50
2024/02/10 03:37:07;;;;;;;;;;;;;;;15.70;50.17;100021.63;5029612;28;1322;-48
2024/02/10 03:39:33;;;;;;;;;;;;;;;15.97;49.46;100014.88;5031721;28;1110;-53
2024/02/10 03:41:58;;;;;;;;;;;;;;;17.43;45.98;100010.13;5030126;28;1289;-53
2024/02/10 03:44:24;;;;;;;;;;;;;;;16.77;47.18;100018.97;5026177;28;1902;-55
2024/02/10 03:46:50;;;;;;;;;;;;;;;16.24;48.67;100008.84;5035557;28;1097;-53
2024/02/10 03:49:15;;;;;;;;;;;;;;;15.94;49.67;100018.19;5031128;28;999;-49
2024/02/10 03:51:41;;;;;;;;;;;;;;;15.82;49.68;100004.03;5037084;28;1400;-52
2024/02/10 03:54:09;;;;;;;;;;;;;;;15.70;50.25;99996.97;5037373;28;1039;-55
2024/02/10 03:56:37;;;;;;;;;;;;;;;16.89;47.45;99993.06;5031339;28;1011;-52
2024/02/10 03:59:03;;;;;;;;;;;;;;;17.52;45.56;100004.81;5018006;28;1038;-55
2024/02/10 04:01:29;;;;;;;;;;;;;;;16.53;48.00;99990.72;5023300;28;996;-52
2024/02/10 04:03:55;;;;;;;;;;;;;;;16.14;48.96;99994.44;5024045;28;1906;-53
2024/02/10 04:06:23;;;;;;;;;;;;;;;15.92;49.58;99987.47;5037373;28;1004;-54
2024/02/10 04:08:49;;;;;;;;;;;;;;;15.70;50.32;99979.72;5017104;28;1066;-52
2024/02/10 04:11:16;;;;;;;;;;;;;;;15.64;50.30;99983.59;5017699;28;1043;-50
2024/02/10 04:13:42;;;;;;;;;;;;;;;16.45;48.26;99986.66;5036591;28;827;-54
2024/02/10 04:16:10;;;;;;;;;;;;;;;17.67;45.24;99979.81;5024279;28;1023;-52
2024/02/10 04:18:36;;;;;;;;;;;;;;;16.82;47.15;99984.34;5037000;28;1106;-51
2024/02/10 04:21:04;;;;;;;;;;;;;;;16.31;48.67;99981.06;5023332;28;1000;-51
2024/02/10 04:23:31;;;;;;;;;;;;;;;15.99;49.24;99971.53;5016616;28;1146;-53
2024/02/10 04:25:57;;;;;;;;;;;;;;;15.85;49.79;99987.00;5024889;28;1111;-52
2024/02/10 04:28:23;;;;;;;;;;;;;;;15.63;50.29;99981.97;5035629;28;1136;-54
2024/02/10 04:30:51;;;;;;;;;;;;;;;16.55;48.16;99988.47;5035574;28;1047;-54
2024/02/10 04:33:17;;;;;;;;;;;;;;;17.35;45.89;99981.41;5016655;28;1028;-50
2024/02/10 04:35:43;;;;;;;;;;;;;;;16.40;48.34;99987.56;5029997;28;1016;-51
2024/02/10 04:38:09;;;;;;;;;;;;;;;15.98;49.27;99985.53;5029460;28;2903;-49
2024/02/10 04:40:34;;;;;;;;;;;;;;;15.85;49.74;99998.81;5022801;28;1123;-50
2024/02/10 04:43:00;;;;;;;;;;;;;;;15.63;50.13;99991.00;5028899;28;1035;-53
2024/02/10 04:45:26;;;;;;;;;;;;;;;15.60;50.43;99985.25;5031252;28;1983;-55
2024/02/10 04:47:51;;;;;;;;;;;;;;;17.05;46.84;99996.41;5028435;28;1143;-52
2024/02/10 04:50:17;;;;;;;;;;;;;;;17.24;46.01;99996.41;5025803;28;1147;-58
2024/02/10 04:52:43;;;;;;;;;;;;;;;16.36;48.38;100008.44;5028022;28;1019;-54
2024/02/10 04:55:09;;;;;;;;;;;;;;;16.04;49.36;100011.78;5017403;28;1004;-54
2024/02/10 04:57:35;;;;;;;;;;;;;;;15.84;49.71;100019.09;5016716;28;1405;-53
2024/02/10 05:00:07;;;;;;;;;;;;;;;15.62;50.33;100014.03;5029826;28;1143;-52
2024/02/10 05:02:32;;;;;;;;;;;;;;;16.06;49.27;100004.91;5018886;28;886;-52
2024/02/10 05:04:58;;;;;;;;;;;;;;;17.50;45.69;100007.03;5029184;28;1930;-57
2024/02/10 05:07:23;;;;;;;;;;;;;;;16.68;47.53;100008.94;5016722;28;2546;-52
2024/02/10 05:09:49;;;;;;;;;;;;;;;16.11;48.95;100006.78;5016620;28;1123;-52
2024/02/10 05:12:14;;;;;;;;;;;;;;;15.89;49.68;100004.50;5016815;28;1016;-51
2024/02/10 05:14:40;;;;;;;;;;;;;;;15.73;50.15;100010.09;5027042;28;1031;-51
2024/02/10 05:17:06;;;;;;;;;;;;;;;17.02;47.02;100002.50;5035886;28;1155;-55
2024/02/10 05:19:33;;;;;;;;;;;;;;;17.62;45.19;99999.13;5021078;28;1107;-56
2024/02/10 05:21:58;;;;;;;;;;;;;;;16.29;48.13;99999.75;5016199;28;1019;-55
2024/02/10 05:24:24;;;;;;;;;;;;;;;17.03;47.00;99998.63;5031052;28;1917;-55
2024/02/10 05:26:50;;;;;;;;;;;;;;;17.25;46.12;99998.03;5022946;28;1166;-50
2024/02/10 05:29:18;;;;;;;;;;;;;;;16.34;47.68;100004.34;5016454;28;1047;-56
2024/02/10 05:31:47;;;;;;;;;;;;;;;16.78;47.53;100008.81;5016280;28;1048;-57
2024/02/10 05:34:14;;;;;;;;;;;;;;;17.39;45.85;99995.34;5025790;28;1096;-53
2024/02/10 05:36:40;;;;;;;;;;;;;;;16.53;47.65;99996.19;5019815;28;2393;-53
2024/02/10 05:39:08;;;;;;;;;;;;;;;16.25;48.09;100002.25;5019548;28;920;-53
2024/02/10 05:41:34;;;;;;;;;;;;;;;18.04;44.70;100000.09;5016374;28;1134;-52
2024/02/10 05:44:00;;;;;;;;;;;;;;;16.82;47.12;100015.34;5026231;28;1921;-51
2024/02/10 05:46:27;;;;;;;;;;;;;;;16.36;47.70;100010.38;5032390;28;1114;-55
2024/02/10 05:48:53;;;;;;;;;;;;;;;16.62;47.93;100024.66;5026388;28;1120;-50
2024/02/10 05:51:19;;;;;;;;;;;;;;;18.28;44.40;100040.41;5028883;28;1217;-56
2024/02/10 05:53:46;;;;;;;;;;;;;;;17.01;46.76;100042.88;5016504;28;1045;-53
2024/02/10 05:56:15;;;;;;;;;;;;;;;17.17;47.16;100046.22;5023608;28;1269;-55
2024/02/10 05:58:43;;;;;;;;;;;;;;;17.73;45.55;100050.09;5016178;28;1080;-51
2024/02/10 06:01:19;;;;;;;;;;;;;;;16.75;47.12;100056.88;5026704;28;1096;-53
2024/02/10 06:03:44;;;;;;;;;;;;;;;16.43;46.98;100046.53;5023417;28;1910;-54
2024/02/10 06:06:10;;;;;;;;;;;;;;;18.12;44.93;100037.13;5035581;28;1099;-55
2024/02/10 06:08:36;;;;;;;;;;;;;;;17.27;46.54;100053.53;5017163;28;2463;-52
2024/02/10 06:11:02;;;;;;;;;;;;;;;16.74;47.02;100052.47;5027559;28;1032;-54
2024/02/10 06:13:29;;;;;;;;;;;;;;;17.18;46.86;100055.28;5030381;28;1015;-54
2024/02/10 06:15:55;;;;;;;;;;;;;;;17.36;46.60;100050.91;5021560;28;882;-54
2024/02/10 06:18:27;;;;;;;;;;;;;;;17.08;47.40;100062.56;5029432;28;1130;-56
2024/02/10 06:20:53;;;;;;;;;;;;;;;18.75;43.39;100049.44;5028670;28;1036;-57
2024/02/10 06:23:25;;;;;;;;;;;;;;;17.34;46.41;100051.22;5035195;28;1233;-54
2024/02/10 06:25:54;;;;;;;;;;;;;;;16.92;46.92;100047.38;5035251;28;1902;-52
2024/02/10 06:28:21;;;;;;;;;;;;;;;16.65;46.75;100046.03;5022260;28;1123;-54
2024/02/10 06:30:46;;;;;;;;;;;;;;;16.43;46.49;100044.59;5038662;28;1040;-57
2024/02/10 06:33:12;;;;;;;;;;;;;;;17.79;46.17;100048.06;5019384;28;1134;-56
2024/02/10 06:35:37;;;;;;;;;;;;;;;16.95;47.42;100057.78;5019703;28;1104;-55
2024/02/10 06:38:03;;;;;;;;;;;;;;;16.58;46.98;100078.50;5019522;28;2847;-53
2024/02/10 06:40:29;;;;;;;;;;;;;;;17.39;46.71;100073.16;5038774;28;1055;-51
2024/02/10 06:42:54;;;;;;;;;;;;;;;17.37;46.64;100066.31;5038873;28;1059;-49
2024/02/10 06:45:26;;;;;;;;;;;;;;;16.84;47.23;100072.72;5025640;28;1969;-52
2024/02/10 06:47:51;;;;;;;;;;;;;;;17.69;46.33;100067.50;5026445;28;984;-50
2024/02/10 06:50:28;;;;;;;;;;;;;;;17.43;46.58;100063.19;5025893;28;1533;-51
2024/02/10 06:52:54;;;;;;;;;;;;;;;16.73;47.23;100059.09;5028943;28;963;-53
2024/02/10 06:55:19;;;;;;;;;;;;;;;17.64;46.44;100051.06;5021404;28;1127;-48
2024/02/10 06:57:47;;;;;;;;;;;;;;;16.94;47.47;100058.88;5029308;28;1167;-54
2024/02/10 07:00:14;;;;;;;;;;;;;;;16.63;47.15;100050.97;5018883;28;1027;-54
2024/02/10 07:02:43;;;;;;;;;;;;;;;17.56;46.77;100056.13;5018192;28;1149;-50
2024/02/10 07:05:19;;;;;;;;;;;;;;;17.74;46.05;100065.47;5032056;28;1898;-55
2024/02/10 07:07:48;;;;;;;;;;;;;;;16.91;47.28;100063.06;5018861;28;2613;-55
2024/02/10 07:10:14;;;;;;;;;;;;;;;16.63;46.86;100056.47;5024552;28;1184;-53
2024/02/10 07:12:42;;;;;;;;;;;;;;;17.26;46.88;100066.47;5026309;28;1040;-51
2024/02/10 07:15:12;;;;;;;;;;;;;;;17.58;46.36;100067.63;5035399;28;1071;-55
2024/02/10 07:17:43;;;;;;;;;;;;;;;16.81;47.21;100065.06;5025566;28;1048;-56
2024/02/10 07:20:10;;;;;;;;;;;;;;;16.53;46.98;100051.91;5025443;28;1025;-54
2024/02/10 07:22:35;;;;;;;;;;;;;;;16.52;46.41;100065.91;5037287;28;1050;-50
2024/02/10 07:25:03;;;;;;;;;;;;;;;17.57;46.53;100068.78;5018383;28;1974;-54
2024/02/10 07:27:29;;;;;;;;;;;;;;;17.16;47.11;100076.75;5022969;28;1083;-52
2024/02/10 07:29:54;;;;;;;;;;;;;;;16.62;47.42;100082.28;5030191;28;1135;-55
2024/02/10 07:32:19;;;;;;;;;;;;;;;17.58;46.79;100080.56;5019065;28;1008;-54
2024/02/10 07:34:47;;;;;;;;;;;;;;;17.28;47.17;100085.38;5037793;28;1059;-54
2024/02/10 07:37:13;;;;;;;;;;;;;;;16.76;47.44;100087.91;5023118;28;2522;-51
2024/02/10 07:39:40;;;;;;;;;;;;;;;16.64;47.64;100091.03;5027002;28;882;-53
2024/02/10 07:42:05;;;;;;;;;;;;;;;17.97;45.67;100095.97;5023305;28;1154;-53
2024/02/10 07:44:31;;;;;;;;;;;;;;;17.04;47.25;100099.13;5017696;28;1967;-57
2024/02/10 07:46:57;;;;;;;;;;;;;;;16.66;46.91;100104.47;5032129;28;1047;-51
2024/02/10 07:49:22;;;;;;;;;;;;;;;16.53;46.67;100114.22;5037341;28;1140;-55
2024/02/10 07:51:48;;;;;;;;;;;;;;;17.94;45.98;100113.06;5027368;28;1063;-56
2024/02/10 07:54:14;;;;;;;;;;;;;;;17.18;47.25;100111.06;5017904;28;1203;-55
2024/02/10 07:56:41;;;;;;;;;;;;;;;17.12;47.49;100101.22;5019019;28;1164;-56
2024/02/10 07:59:07;;;;;;;;;;;;;;;18.20;45.07;100094.22;5024392;28;1163;-53
2024/02/10 08:01:32;;;;;;;;;;;;;;;17.09;47.27;100097.13;5023971;28;1023;-49
2024/02/10 08:03:58;;;;;;;;;;;;;;;16.91;46.77;100090.50;5026088;28;1985;-56
2024/02/10 08:06:33;;;;;;;;;;;;;;;16.77;46.36;100101.34;5017236;28;2439;-50
2024/02/10 08:09:00;;;;;;;;;;;;;;;17.39;46.79;100106.13;5017932;28;1152;-52
2024/02/10 08:11:29;;;;;;;;;;;;;;;17.81;46.25;100105.53;5032499;28;1020;-53
2024/02/10 08:13:54;;;;;;;;;;;;;;;17.04;47.02;100108.22;5037207;28;1079;-56
2024/02/10 08:16:21;;;;;;;;;;;;;;;16.74;46.94;100112.88;5032350;28;1205;-54
2024/02/10 08:18:49;;;;;;;;;;;;;;;16.59;46.56;100119.38;5026883;28;1106;-57
2024/02/10 08:21:17;;;;;;;;;;;;;;;16.52;46.32;100131.78;5033899;28;1059;-56
2024/02/10 08:23:49;;;;;;;;;;;;;;;17.39;46.86;100136.34;5027651;28;1973;-55
2024/02/10 08:26:17;;;;;;;;;;;;;;;17.23;47.07;100126.66;5032392;28;1091;-57
2024/02/10 08:28:47;;;;;;;;;;;;;;;16.94;47.80;100111.06;5032694;28;866;-54
2024/02/10 08:31:17;;;;;;;;;;;;;;;18.33;45.04;100122.91;5036759;28;1086;-57
2024/02/10 08:33:49;;;;;;;;;;;;;;;17.13;47.51;100115.81;5024739;28;1163;-58
2024/02/10 08:36:15;;;;;;;;;;;;;;;16.80;47.11;100121.06;5017018;28;1241;-57
2024/02/10 08:38:41;;;;;;;;;;;;;;;17.21;47.35;100110.47;5035432;28;2861;-57
2024/02/10 08:41:06;;;;;;;;;;;;;;;17.95;46.08;100117.47;5017318;28;1164;-54
2024/02/10 08:43:32;;;;;;;;;;;;;;;17.09;47.28;100124.59;5016883;28;1087;-55
2024/02/10 08:46:00;;;;;;;;;;;;;;;16.86;46.85;100128.16;5023620;28;1987;-56
2024/02/10 08:48:26;;;;;;;;;;;;;;;16.60;46.58;100129.22;5036165;28;1074;-56
2024/02/10 08:50:53;;;;;;;;;;;;;;;16.84;47.22;100139.41;5022952;28;1207;-53
2024/02/10 08:53:22;;;;;;;;;;;;;;;17.09;47.63;100123.81;5017228;28;989;-57
2024/02/10 08:55:49;;;;;;;;;;;;;;;16.65;47.55;100125.63;5028651;28;1075;-53
2024/02/10 08:58:15;;;;;;;;;;;;;;;17.25;47.44;100116.19;5029987;28;1120;-55
2024/02/10 09:00:43;;;;;;;;;;;;;;;17.59;46.67;100128.94;5036141;28;1057;-55
2024/02/10 09:03:09;;;;;;;;;;;;;;;16.81;47.54;100126.28;5023821;28;1062;-56
2024/02/10 09:05:35;;;;;;;;;;;;;;;16.64;47.38;100123.97;5023516;28;1898;-58
2024/02/10 09:08:00;;;;;;;;;;;;;;;16.51;46.58;100124.66;5022681;28;2045;-57
2024/02/10 09:10:26;;;;;;;;;;;;;;;17.71;46.56;100126.59;5029877;28;1070;-58
2024/02/10 09:12:51;;;;;;;;;;;;;;;17.40;47.17;100113.25;5016683;28;1096;-57
2024/02/10 09:15:17;;;;;;;;;;;;;;;16.82;47.69;100116.13;5035059;28;1117;-57
2024/02/10 09:17:42;;;;;;;;;;;;;;;16.66;46.98;100119.03;5017539;28;1149;-57
2024/02/10 09:20:08;;;;;;;;;;;;;;;16.63;46.87;100116.03;5030020;28;1103;-58
2024/02/10 09:22:34;;;;;;;;;;;;;;;18.23;45.52;100112.88;5016583;28;1039;-57
2024/02/10 09:25:00;;;;;;;;;;;;;;;17.07;47.67;100113.13;5035894;28;1973;-58
2024/02/10 09:27:25;;;;;;;;;;;;;;;16.92;47.79;100105.06;5024813;28;1102;-57
2024/02/10 09:29:54;;;;;;;;;;;;;;;18.30;45.34;100090.47;5030031;28;1039;-56
2024/02/10 09:32:20;;;;;;;;;;;;;;;17.18;47.40;100091.84;5016602;28;1027;-56
2024/02/10 09:34:46;;;;;;;;;;;;;;;16.92;47.16;100091.31;5036138;28;1227;-57
2024/02/10 09:37:14;;;;;;;;;;;;;;;16.73;46.61;100086.56;5029294;28;2089;-57
2024/02/10 09:39:41;;;;;;;;;;;;;;;16.48;46.68;100086.81;5020230;28;1052;-57
2024/02/10 09:42:08;;;;;;;;;;;;;;;16.41;46.49;100079.75;5016360;28;1116;-57
2024/02/10 09:44:34;;;;;;;;;;;;;;;17.70;46.73;100074.63;5028888;28;1898;-58
2024/02/10 09:47:00;;;;;;;;;;;;;;;17.09;47.46;100074.34;5016526;28;1155;-57
2024/02/10 09:49:26;;;;;;;;;;;;;;;16.70;47.37;100067.91;5038303;28;1158;-58
2024/02/10 09:51:52;;;;;;;;;;;;;;;16.53;47.27;100067.56;5032042;28;1110;-57
2024/02/10 09:54:17;;;;;;;;;;;;;;;16.43;46.72;100079.47;5015452;28;1056;-55
2024/02/10 09:56:43;;;;;;;;;;;;;;;17.77;46.52;100072.31;5029713;28;1182;-56
2024/02/10 09:59:12;;;;;;;;;;;;;;;17.26;47.60;100065.63;5035630;28;1071;-55
2024/02/10 10:01:37;;;;;;;;;;;;;;;16.86;47.61;100067.75;5022806;28;1092;-53
2024/02/10 10:04:04;;;;;;;;;;;;;;;16.68;47.40;100059.16;5035205;28;1913;-55
2024/02/10 10:06:29;;;;;;;;;;;;;;;16.68;47.64;100053.66;5026650;28;1898;-54
2024/02/10 10:08:57;;;;;;;;;;;;;;;18.35;45.56;100053.78;5032086;28;1170;-54
2024/02/10 10:11:23;;;;;;;;;;;;;;;17.19;47.48;100051.44;5032942;28;1004;-55
2024/02/10 10:13:48;;;;;;;;;;;;;;;16.82;47.59;100056.53;5027522;28;1104;-55
2024/02/10 10:16:14;;;;;;;;;;;;;;;16.77;47.76;100049.19;5035151;28;1083;-55
2024/02/10 10:18:41;;;;;;;;;;;;;;;18.20;45.71;100046.59;5039515;28;1087;-54
2024/02/10 10:21:12;;;;;;;;;;;;;;;17.20;47.65;100050.31;5037155;28;1184;-54
2024/02/10 10:23:39;;;;;;;;;;;;;;;16.86;47.56;100043.84;5028337;28;1092;-55
2024/02/10 10:26:05;;;;;;;;;;;;;;;16.62;47.31;100045.78;5039388;28;1898;-55
2024/02/10 10:28:31;;;;;;;;;;;;;;;16.77;47.44;100045.59;5032268;28;1099;-55
2024/02/10 10:30:57;;;;;;;;;;;;;;;18.30;45.72;100039.00;5032863;28;1143;-55
2024/02/10 10:33:22;;;;;;;;;;;;;;;17.23;47.58;100036.00;5028321;28;1152;-55
2024/02/10 10:35:48;;;;;;;;;;;;;;;16.80;47.84;100045.00;5037928;28;937;-55
2024/02/10 10:38:17;;;;;;;;;;;;;;;16.70;46.94;100045.94;5033041;28;2350;-55
2024/02/10 10:40:43;;;;;;;;;;;;;;;18.28;45.58;100043.16;5028332;28;1049;-55
2024/02/10 10:43:12;;;;;;;;;;;;;;;17.18;47.52;100045.13;5038650;28;1122;-55
2024/02/10 10:45:38;;;;;;;;;;;;;;;16.90;47.41;100038.59;5038156;28;1973;-54
2024/02/10 10:48:06;;;;;;;;;;;;;;;17.07;47.93;100043.63;5028659;28;1035;-55
2024/02/10 10:50:32;;;;;;;;;;;;;;;17.28;47.74;100044.97;5031837;28;1211;-56
2024/02/10 10:53:07;;;;;;;;;;;;;;;16.82;47.61;100031.81;5027484;28;1072;-56
2024/02/10 10:55:33;;;;;;;;;;;;;;;16.58;47.43;100020.84;5033669;28;1094;-56
2024/02/10 10:58:04;;;;;;;;;;;;;;;16.43;47.37;100008.91;5018387;28;1127;-55
2024/02/10 11:00:30;;;;;;;;;;;;;;;18.17;46.13;100015.00;5022946;28;1079;-56
2024/02/10 11:02:56;;;;;;;;;;;;;;;17.16;47.54;100008.06;5025863;28;1195;-55
2024/02/10 11:05:23;;;;;;;;;;;;;;;17.38;47.82;100004.75;5024417;28;1906;-56
2024/02/10 11:07:59;;;;;;;;;;;;;;;17.69;46.98;99998.75;5018990;28;2404;-55
2024/02/10 11:10:34;;;;;;;;;;;;;;;16.95;47.61;100007.53;5018663;28;846;-55
2024/02/10 11:13:00;;;;;;;;;;;;;;;16.80;47.13;100009.31;5020377;28;1122;-52
2024/02/10 11:15:26;;;;;;;;;;;;;;;17.64;47.08;100016.13;5029499;28;1141;-54
2024/02/10 11:18:01;;;;;;;;;;;;;;;17.43;47.14;100018.38;5030659;28;1127;-54
2024/02/10 11:20:38;;;;;;;;;;;;;;;16.97;47.51;100011.63;5018739;28;1004;-57
2024/02/10 11:23:14;;;;;;;;;;;;;;;16.74;46.89;100008.56;5018137;28;1067;-57
2024/02/10 11:25:40;;;;;;;;;;;;;;;16.60;46.67;100007.66;5030835;28;1914;-56
2024/02/10 11:28:06;;;;;;;;;;;;;;;16.52;46.45;100003.63;5024927;28;1098;-56
2024/02/10 11:30:34;;;;;;;;;;;;;;;16.70;46.96;100009.44;5030942;28;880;-55
2024/02/10 11:33:00;;;;;;;;;;;;;;;18.18;46.21;99993.81;5018492;28;1219;-55
2024/02/10 11:35:25;;;;;;;;;;;;;;;17.07;47.77;99997.75;5018626;28;978;-55
2024/02/10 11:37:52;;;;;;;;;;;;;;;16.84;47.51;99993.09;5024893;28;2627;-56
2024/02/10 11:40:19;;;;;;;;;;;;;;;16.65;47.42;99999.34;5045838;28;1118;-55
2024/02/10 11:42:45;;;;;;;;;;;;;;;17.63;47.05;100000.78;5031329;28;1020;-55
2024/02/10 11:45:10;;;;;;;;;;;;;;;17.07;47.80;100002.44;5018040;28;1902;-55
2024/02/10 11:47:36;;;;;;;;;;;;;;;16.80;47.59;100011.25;5017745;28;1136;-55
2024/02/10 11:50:02;;;;;;;;;;;;;;;16.64;47.39;100007.88;5018132;28;1128;-57
2024/02/10 11:52:29;;;;;;;;;;;;;;;17.54;46.91;99994.31;5023181;28;1167;-55
2024/02/10 11:54:54;;;;;;;;;;;;;;;16.85;47.93;100002.97;5018123;28;1028;-56
2024/02/10 11:57:22;;;;;;;;;;;;;;;16.72;47.52;100004.50;5018393;28;1036;-52
2024/02/10 11:59:47;;;;;;;;;;;;;;;16.46;47.11;100006.72;5017861;28;1118;-55
2024/02/10 12:02:15;;;;;;;;;;;;;;;17.56;46.98;100001.16;5051911;28;1064;-56
2024/02/10 12:04:46;;;;;;;;;;;;;;;18.21;46.05;99998.72;5026177;28;1897;-56
2024/02/10 12:07:13;;;;;;;;;;;;;;;17.14;47.60;100002.88;5037474;28;2681;-55
2024/02/10 12:09:38;;;;;;;;;;;;;;;16.90;47.36;100005.66;5037203;28;1115;-55
2024/02/10 12:12:04;;;;;;;;;;;;;;;16.72;46.96;100002.56;5030447;28;1101;-56
2024/02/10 12:14:30;;;;;;;;;;;;;;;16.70;47.10;100003.97;5017450;28;1032;-55
2024/02/10 12:16:59;;;;;;;;;;;;;;;17.58;46.99;99990.66;5031744;28;1155;-55
2024/02/10 12:19:25;;;;;;;;;;;;;;;16.92;47.82;99993.25;5036839;28;1107;-56
2024/02/10 12:21:51;;;;;;;;;;;;;;;16.71;47.33;100003.66;5037539;28;1067;-57
2024/02/10 12:24:21;;;;;;;;;;;;;;;16.61;47.61;100012.03;5037188;28;1968;-55
2024/02/10 12:26:49;;;;;;;;;;;;;;;18.28;45.90;99999.13;5024676;28;1047;-56
2024/02/10 12:29:15;;;;;;;;;;;;;;;17.20;47.86;100000.88;5025320;28;1024;-55
2024/02/10 12:31:41;;;;;;;;;;;;;;;16.79;47.70;100007.69;5024557;28;1071;-56
2024/02/10 12:34:08;;;;;;;;;;;;;;;16.72;47.10;100004.50;5023074;28;1115;-55
2024/02/10 12:36:34;;;;;;;;;;;;;;;16.55;46.85;99999.47;5016874;28;2526;-55
2024/02/10 12:39:00;;;;;;;;;;;;;;;17.81;46.81;99993.63;5032278;28;1092;-56
2024/02/10 12:41:26;;;;;;;;;;;;;;;17.56;47.19;99992.91;5022820;28;1203;-55
2024/02/10 12:43:53;;;;;;;;;;;;;;;16.99;47.74;99992.91;5021777;28;1909;-56
2024/02/10 12:46:18;;;;;;;;;;;;;;;16.69;47.52;100000.41;5016902;28;1510;-55
2024/02/10 12:48:44;;;;;;;;;;;;;;;16.61;46.98;100012.03;5016985;28;1069;-54